{
  "fields": [{"type":"int","id":"_id"},{"info":{"type_override":"text","notes":"Hora UTC de lectura de los datos (AAAA-MM-DD HH:mm:SS)(+1 para CET invierno, +2 para CET verano)","label":"date"},"type":"text","id":"TIMESTAMP"},{"info":{"type_override":"text","notes":"Record Number - identificador del registro","label":"int"},"type":"text","id":"RECORD"},{"info":{"type_override":"text","notes":"Velocidad media del viento en el periodo de 10 minutos leído","label":"float"},"type":"text","id":"VV_S_WVT"},{"info":{"type_override":"text","notes":"Dirección media del viento en el periodo de 10 minutos leído","label":"float"},"type":"text","id":"DV_D1_WVT"},{"info":{"type_override":"text","notes":"Velocidad máxima del viento en el periodo de 10 minutos leído","label":"float"},"type":"text","id":"VV10m3Seg_Max"},{"info":{"type_override":"text","notes":"Dirección de la racha máxima del viento en el periodo de 10 minutos leído","label":"text"},"type":"text","id":"DV10m3Seg_SMM"},{"info":{"type_override":"text","notes":"Presión atmosférica media en el periodo de 10 minutos leído","label":"text"},"type":"text","id":"PRE_Avg"},{"info":{"type_override":"text","notes":"Temperatura del aire media en el periodo de 10 minutos leído","label":"text"},"type":"text","id":"TEM_Avg"},{"info":{"type_override":"text","notes":"Humedad relativa del aire promedio en el periodo de 10 minutos leído","label":"text"},"type":"text","id":"HUM_Avg"},{"info":{"type_override":"text","notes":"Radiación solar media en el periodo de 10 minutos leído","label":"text"},"type":"text","id":"RAD_Avg"},{"info":{"type_override":"text","notes":"Precipitación acumulada en el periodo de 10 minutos leído","label":"text"},"type":"text","id":"PLU_Tot"}],
  "records": [
    [1124155,"2026-05-07 00:00:00","53640","2.8160000000000003","57.19","5.292000000000001","65.23","NAN","NAN","NAN","NAN","NAN"],
    [1124156,"2026-05-07 00:10:00","53641","3.133","61.35","5.553","82.1","NAN","NAN","NAN","NAN","NAN"],
    [1124157,"2026-05-07 00:20:00","53642","2.852","55.2","5.749","43.6","NAN","NAN","NAN","NAN","NAN"],
    [1124158,"2026-05-07 00:30:00","53643","3.805","57.69","7.121","69.33","NAN","NAN","NAN","NAN","NAN"],
    [1124159,"2026-05-07 00:40:00","53644","3.508","59.18","6.403","69.86","NAN","NAN","NAN","NAN","NAN"],
    [1124160,"2026-05-07 00:50:00","53645","3.262","63.45","5.815","68.0","NAN","NAN","NAN","NAN","NAN"],
    [1124161,"2026-05-07 01:00:00","53646","3.863","69.93","5.749","74.61","NAN","NAN","NAN","NAN","NAN"],
    [1124162,"2026-05-07 01:10:00","53647","3.055","69.08","4.965","57.83","NAN","NAN","NAN","NAN","NAN"],
    [1124163,"2026-05-07 01:20:00","53648","2.7739999999999996","66.88","5.063","70.36","NAN","NAN","NAN","NAN","NAN"],
    [1124164,"2026-05-07 01:30:00","53649","2.912","66.91","5.455","66.34","NAN","NAN","NAN","NAN","NAN"],
    [1124165,"2026-05-07 01:40:00","53650","2.477","55.85","4.9","57.27","NAN","NAN","NAN","NAN","NAN"],
    [1124166,"2026-05-07 01:50:00","53651","2.593","51.95","4.9","54.66","NAN","NAN","NAN","NAN","NAN"],
    [1124167,"2026-05-07 02:00:00","53652","2.372","50.17","4.998","46.25","NAN","NAN","NAN","NAN","NAN"],
    [1124168,"2026-05-07 02:10:00","53653","2.0709999999999997","58.72","4.345","47.87","NAN","NAN","NAN","NAN","NAN"],
    [1124169,"2026-05-07 02:20:00","53654","2.114","54.95","4.247","65.5","NAN","NAN","NAN","NAN","NAN"],
    [1124170,"2026-05-07 02:30:00","53655","2.241","38.46","3.855","33.16","NAN","NAN","NAN","NAN","NAN"],
    [1124171,"2026-05-07 02:40:00","53656","1.4280000000000002","36.72","2.7769999999999997","33.32","NAN","NAN","NAN","NAN","NAN"],
    [1124172,"2026-05-07 02:50:00","53657","1.34","37.65","2.8089999999999997","33.35","NAN","NAN","NAN","NAN","NAN"],
    [1124173,"2026-05-07 03:00:00","53658","1.4169999999999998","36.01","2.679","44.1","NAN","NAN","NAN","NAN","NAN"],
    [1124174,"2026-05-07 03:10:00","53659","1.14","40.21","2.842","47.21","NAN","NAN","NAN","NAN","NAN"],
    [1124175,"2026-05-07 03:20:00","53660","1.023","36.99","2.9730000000000003","37.31","NAN","NAN","NAN","NAN","NAN"],
    [1124176,"2026-05-07 03:30:00","53661","0.465","33.2","1.568","32.41","NAN","NAN","NAN","NAN","NAN"],
    [1124177,"2026-05-07 03:40:00","53662","0.0","32.29","0.033","32.29","NAN","NAN","NAN","NAN","NAN"],
    [1124178,"2026-05-07 03:50:00","53663","0.0","0.0","0.0","0.0","NAN","NAN","NAN","NAN","NAN"],
    [1124179,"2026-05-07 04:00:00","53664","0.083","31.99","1.111","31.95","NAN","NAN","NAN","NAN","NAN"],
    [1124180,"2026-05-07 04:10:00","53665","0.145","31.97","1.2409999999999999","31.91","NAN","NAN","NAN","NAN","NAN"],
    [1124181,"2026-05-07 04:20:00","53666","0.345","32.45","1.47","32.94","NAN","NAN","NAN","NAN","NAN"],
    [1124182,"2026-05-07 04:30:00","53667","0.55","35.08","2.189","47.94","NAN","NAN","NAN","NAN","NAN"],
    [1124183,"2026-05-07 04:40:00","53668","1.115","35.6","2.613","33.91","NAN","NAN","NAN","NAN","NAN"],
    [1124184,"2026-05-07 04:50:00","53669","1.7719999999999998","42.8","3.103","37.52","NAN","NAN","NAN","NAN","NAN"],
    [1124185,"2026-05-07 05:00:00","53670","1.203","35.49","2.5810000000000004","50.29","NAN","NAN","NAN","NAN","NAN"],
    [1124186,"2026-05-07 05:10:00","53671","0.836","34.19","2.025","36.19","NAN","NAN","NAN","NAN","NAN"],
    [1124187,"2026-05-07 05:20:00","53672","0.024","31.62","0.555","31.62","NAN","NAN","NAN","NAN","NAN"],
    [1124188,"2026-05-07 05:30:00","53673","0.040999999999999995","31.34","0.425","31.52","NAN","NAN","NAN","NAN","NAN"],
    [1124189,"2026-05-07 05:40:00","53674","0.244","30.5","0.784","29.98","NAN","NAN","NAN","NAN","NAN"],
    [1124190,"2026-05-07 05:50:00","53675","0.429","29.37","1.078","29.41","NAN","NAN","NAN","NAN","NAN"],
    [1124191,"2026-05-07 06:00:00","53676","0.073","28.83","0.8170000000000001","28.83","NAN","NAN","NAN","NAN","NAN"],
    [1124192,"2026-05-07 06:10:00","53677","0.46799999999999997","28.77","1.601","28.83","NAN","NAN","NAN","NAN","NAN"],
    [1124193,"2026-05-07 06:20:00","53678","0.127","28.68","0.784","28.64","NAN","NAN","NAN","NAN","NAN"],
    [1124194,"2026-05-07 06:30:00","53679","0.655","41.35","2.7769999999999997","49.54","NAN","NAN","NAN","NAN","NAN"],
    [1124195,"2026-05-07 06:40:00","53680","1.3980000000000001","52.02","2.9730000000000003","53.47","NAN","NAN","NAN","NAN","NAN"],
    [1124196,"2026-05-07 06:50:00","53681","2.046","58.15","3.528","58.76","NAN","NAN","NAN","NAN","NAN"],
    [1124197,"2026-05-07 07:00:00","53682","2.029","51.86","3.528","34.43","NAN","NAN","NAN","NAN","NAN"],
    [1124198,"2026-05-07 07:10:00","53683","1.926","52.63","3.855","41.86","NAN","NAN","NAN","NAN","NAN"],
    [1124199,"2026-05-07 07:20:00","53684","2.463","62.63","4.769","58.96","NAN","NAN","NAN","NAN","NAN"],
    [1124200,"2026-05-07 07:30:00","53685","2.5069999999999997","62.12","4.638999999999999","63.09","NAN","NAN","NAN","NAN","NAN"],
    [1124201,"2026-05-07 07:40:00","53686","2.574","62.75","5.553","74.8","NAN","NAN","NAN","NAN","NAN"],
    [1124202,"2026-05-07 07:50:00","53687","3.125","70.04","5.684","51.92","NAN","NAN","NAN","NAN","NAN"],
    [1124203,"2026-05-07 08:00:00","53688","3.638","85.0","6.109","62.33","NAN","NAN","NAN","NAN","NAN"],
    [1124204,"2026-05-07 08:10:00","53689","2.602","90.0","5.651","101.8","NAN","NAN","NAN","NAN","NAN"],
    [1124205,"2026-05-07 08:20:00","53690","3.3360000000000003","103.0","5.521","95.7","NAN","NAN","NAN","NAN","NAN"],
    [1124206,"2026-05-07 08:30:00","53691","3.464","101.4","5.847","93.4","NAN","NAN","NAN","NAN","NAN"],
    [1124207,"2026-05-07 08:40:00","53692","3.804","97.1","5.7170000000000005","100.6","NAN","NAN","NAN","NAN","NAN"],
    [1124208,"2026-05-07 08:50:00","53693","3.92","100.3","6.501","114.8","NAN","NAN","NAN","NAN","NAN"],
    [1124209,"2026-05-07 09:00:00","53694","3.62","98.6","7.154","90.8","NAN","NAN","NAN","NAN","NAN"],
    [1124210,"2026-05-07 09:10:00","53695","3.611","91.6","6.239","93.8","NAN","NAN","NAN","NAN","NAN"],
    [1124211,"2026-05-07 09:20:00","53696","3.565","97.0","5.815","126.9","NAN","NAN","NAN","NAN","NAN"],
    [1124212,"2026-05-07 09:30:00","53697","3.425","97.9","6.207000000000001","95.9","NAN","NAN","NAN","NAN","NAN"],
    [1124213,"2026-05-07 09:40:00","53698","3.678","94.3","5.978","77.44","NAN","NAN","NAN","NAN","NAN"],
    [1124214,"2026-05-07 09:50:00","53699","3.252","100.6","5.553","105.2","NAN","NAN","NAN","NAN","NAN"],
    [1124215,"2026-05-07 10:00:00","53700","3.4560000000000004","102.6","5.945","86.4","NAN","NAN","NAN","NAN","NAN"],
    [1124216,"2026-05-07 10:10:00","53701","3.6630000000000003","100.0","5.7170000000000005","99.1","NAN","NAN","NAN","NAN","NAN"],
    [1124217,"2026-05-07 10:20:00","53702","3.6519999999999997","96.7","6.5329999999999995","76.15","NAN","NAN","NAN","NAN","NAN"],
    [1124218,"2026-05-07 10:30:00","53703","3.6180000000000003","103.4","6.272","89.4","NAN","NAN","NAN","NAN","NAN"],
    [1124219,"2026-05-07 10:40:00","53704","3.753","90.3","6.1739999999999995","86.0","NAN","NAN","NAN","NAN","NAN"],
    [1124220,"2026-05-07 10:50:00","53705","3.897","95.2","6.011","99.0","NAN","NAN","NAN","NAN","NAN"],
    [1124221,"2026-05-07 11:00:00","53706","3.7319999999999998","104.7","6.827000000000001","105.1","NAN","NAN","NAN","NAN","NAN"],
    [1124222,"2026-05-07 11:10:00","53707","3.392","101.4","5.815","92.2","NAN","NAN","NAN","NAN","NAN"],
    [1124223,"2026-05-07 11:20:00","53708","3.875","101.3","6.0760000000000005","98.0","NAN","NAN","NAN","NAN","NAN"],
    [1124224,"2026-05-07 11:30:00","53709","3.667","113.2","5.684","125.3","NAN","NAN","NAN","NAN","NAN"],
    [1124225,"2026-05-07 11:40:00","53710","3.8789999999999996","113.9","6.141","113.3","NAN","NAN","NAN","NAN","NAN"],
    [1124226,"2026-05-07 11:50:00","53711","3.91","125.1","5.945","105.4","NAN","NAN","NAN","NAN","NAN"],
    [1124227,"2026-05-07 12:00:00","53712","3.25","123.5","5.912999999999999","135.2","NAN","NAN","NAN","NAN","NAN"],
    [1124228,"2026-05-07 12:10:00","53713","3.9730000000000003","121.6","5.945","109.6","NAN","NAN","NAN","NAN","NAN"],
    [1124229,"2026-05-07 12:20:00","53714","3.839","116.9","6.86","114.7","NAN","NAN","NAN","NAN","NAN"],
    [1124230,"2026-05-07 12:30:00","53715","4.169","119.3","5.815","116.2","NAN","NAN","NAN","NAN","NAN"],
    [1124231,"2026-05-07 12:40:00","53716","4.223","122.5","6.403","118.4","NAN","NAN","NAN","NAN","NAN"],
    [1124232,"2026-05-07 12:50:00","53717","3.85","113.5","6.011","116.7","NAN","NAN","NAN","NAN","NAN"],
    [1124233,"2026-05-07 13:00:00","53718","4.144","121.1","6.0760000000000005","122.6","NAN","NAN","NAN","NAN","NAN"],
    [1124234,"2026-05-07 13:10:00","53719","3.0789999999999997","121.5","5.945","142.6","NAN","NAN","NAN","NAN","NAN"],
    [1124235,"2026-05-07 13:20:00","53720","3.266","112.2","6.305","95.0","NAN","NAN","NAN","NAN","NAN"],
    [1124236,"2026-05-07 13:30:00","53721","3.8930000000000002","104.5","5.651","91.6","NAN","NAN","NAN","NAN","NAN"],
    [1124237,"2026-05-07 13:40:00","53722","3.807","105.8","5.978","111.0","NAN","NAN","NAN","NAN","NAN"],
    [1124238,"2026-05-07 13:50:00","53723","3.301","101.3","5.749","94.3","NAN","NAN","NAN","NAN","NAN"],
    [1124239,"2026-05-07 14:00:00","53724","3.34","91.1","5.325","90.6","NAN","NAN","NAN","NAN","NAN"],
    [1124240,"2026-05-07 14:10:00","53725","3.2430000000000003","101.0","4.933","95.4","NAN","NAN","NAN","NAN","NAN"],
    [1124241,"2026-05-07 14:20:00","53726","2.6460000000000004","92.2","5.357","120.2","NAN","NAN","NAN","NAN","NAN"],
    [1124242,"2026-05-07 14:30:00","53727","2.7569999999999997","95.1","5.194","98.4","NAN","NAN","NAN","NAN","NAN"],
    [1124243,"2026-05-07 14:40:00","53728","2.927","93.5","5.1610000000000005","82.0","NAN","NAN","NAN","NAN","NAN"],
    [1124244,"2026-05-07 14:50:00","53729","3.303","92.0","5.325","98.5","NAN","NAN","NAN","NAN","NAN"],
    [1124245,"2026-05-07 15:00:00","53730","3.15","97.6","5.063","96.5","NAN","NAN","NAN","NAN","NAN"],
    [1124246,"2026-05-07 15:10:00","53731","2.9739999999999998","110.0","5.651","105.4","NAN","NAN","NAN","NAN","NAN"],
    [1124247,"2026-05-07 15:20:00","53732","3.661","119.6","5.749","131.7","NAN","NAN","NAN","NAN","NAN"],
    [1124248,"2026-05-07 15:30:00","53733","2.9760000000000004","100.3","5.325","90.7","NAN","NAN","NAN","NAN","NAN"],
    [1124249,"2026-05-07 15:40:00","53734","3.2910000000000004","94.0","5.129","81.2","NAN","NAN","NAN","NAN","NAN"],
    [1124250,"2026-05-07 15:50:00","53735","3.0069999999999997","91.5","5.325","87.8","NAN","NAN","NAN","NAN","NAN"],
    [1124251,"2026-05-07 16:00:00","53736","3.218","100.2","4.965","98.9","NAN","NAN","NAN","NAN","NAN"],
    [1124252,"2026-05-07 16:10:00","53737","3.0010000000000003","95.3","5.227","99.4","NAN","NAN","NAN","NAN","NAN"],
    [1124253,"2026-05-07 16:20:00","53738","3.0380000000000003","95.7","5.7170000000000005","73.13","NAN","NAN","NAN","NAN","NAN"],
    [1124254,"2026-05-07 16:30:00","53739","3.049","97.5","5.129","83.9","NAN","NAN","NAN","NAN","NAN"],
    [1124255,"2026-05-07 16:40:00","53740","2.923","92.9","4.835","81.7","NAN","NAN","NAN","NAN","NAN"],
    [1124256,"2026-05-07 16:50:00","53741","2.983","95.4","4.704","103.8","NAN","NAN","NAN","NAN","NAN"],
    [1124257,"2026-05-07 17:00:00","53742","3.034","96.3","4.508","91.7","NAN","NAN","NAN","NAN","NAN"],
    [1124258,"2026-05-07 17:10:00","53743","2.991","98.4","4.998","93.6","NAN","NAN","NAN","NAN","NAN"],
    [1124259,"2026-05-07 17:20:00","53744","2.524","99.3","4.573","101.5","NAN","NAN","NAN","NAN","NAN"],
    [1124260,"2026-05-07 17:30:00","53745","2.505","90.1","4.377","102.5","NAN","NAN","NAN","NAN","NAN"],
    [1124261,"2026-05-07 17:40:00","53746","3.0639999999999996","65.05","5.031000000000001","66.71","NAN","NAN","NAN","NAN","NAN"],
    [1124262,"2026-05-07 17:50:00","53747","2.6310000000000002","66.74","4.769","69.6","NAN","NAN","NAN","NAN","NAN"],
    [1124263,"2026-05-07 18:00:00","53748","2.358","78.39","4.4430000000000005","65.81","NAN","NAN","NAN","NAN","NAN"],
    [1124264,"2026-05-07 18:10:00","53749","1.9609999999999999","92.4","4.475","78.74","NAN","NAN","NAN","NAN","NAN"],
    [1124265,"2026-05-07 18:20:00","53750","2.687","97.8","4.671","103.8","NAN","NAN","NAN","NAN","NAN"],
    [1124266,"2026-05-07 18:30:00","53751","2.1430000000000002","97.6","3.528","98.0","NAN","NAN","NAN","NAN","NAN"],
    [1124267,"2026-05-07 18:40:00","53752","2.2119999999999997","97.3","3.7889999999999997","100.7","NAN","NAN","NAN","NAN","NAN"],
    [1124268,"2026-05-07 18:50:00","53753","2.1319999999999997","99.3","3.822","103.4","NAN","NAN","NAN","NAN","NAN"],
    [1124269,"2026-05-07 19:00:00","53754","2.53","65.78","4.704","64.44","NAN","NAN","NAN","NAN","NAN"],
    [1124270,"2026-05-07 19:10:00","53755","2.333","59.35","3.985","61.61","NAN","NAN","NAN","NAN","NAN"],
    [1124271,"2026-05-07 19:20:00","53756","2.1830000000000003","67.46","3.92","66.53","NAN","NAN","NAN","NAN","NAN"],
    [1124272,"2026-05-07 19:30:00","53757","1.821","75.51","3.201","74.69","NAN","NAN","NAN","NAN","NAN"],
    [1124273,"2026-05-07 19:40:00","53758","1.8259999999999998","75.04","3.0380000000000003","68.07","NAN","NAN","NAN","NAN","NAN"],
    [1124274,"2026-05-07 19:50:00","53759","1.986","61.3","3.92","65.08","NAN","NAN","NAN","NAN","NAN"],
    [1124275,"2026-05-07 20:00:00","53760","1.7919999999999998","56.77","3.234","58.54","NAN","NAN","NAN","NAN","NAN"],
    [1124276,"2026-05-07 20:10:00","53761","1.9480000000000002","62.16","3.528","70.09","NAN","NAN","NAN","NAN","NAN"],
    [1124277,"2026-05-07 20:20:00","53762","1.828","64.65","3.267","67.43","NAN","NAN","NAN","NAN","NAN"],
    [1124278,"2026-05-07 20:30:00","53763","1.155","65.08","2.417","54.65","NAN","NAN","NAN","NAN","NAN"],
    [1124279,"2026-05-07 20:40:00","53764","1.554","74.96","2.7110000000000003","79.63","NAN","NAN","NAN","NAN","NAN"],
    [1124280,"2026-05-07 20:50:00","53765","1.8319999999999999","83.4","3.136","85.7","NAN","NAN","NAN","NAN","NAN"],
    [1124281,"2026-05-07 21:00:00","53766","1.6340000000000001","67.88","3.1689999999999996","93.0","NAN","NAN","NAN","NAN","NAN"],
    [1124282,"2026-05-07 21:10:00","53767","1.235","90.4","2.6460000000000004","84.8","NAN","NAN","NAN","NAN","NAN"],
    [1124283,"2026-05-07 21:20:00","53768","1.385","93.1","2.515","91.2","NAN","NAN","NAN","NAN","NAN"],
    [1124284,"2026-05-07 21:30:00","53769","1.212","96.0","2.319","90.4","NAN","NAN","NAN","NAN","NAN"],
    [1124285,"2026-05-07 21:40:00","53770","1.335","96.9","2.7439999999999998","93.7","NAN","NAN","NAN","NAN","NAN"],
    [1124286,"2026-05-07 21:50:00","53771","0.9329999999999999","93.7","2.352","98.7","NAN","NAN","NAN","NAN","NAN"],
    [1124287,"2026-05-07 22:00:00","53772","0.8590000000000001","75.82","2.123","75.42","NAN","NAN","NAN","NAN","NAN"],
    [1124288,"2026-05-07 22:10:00","53773","0.855","72.35","1.8619999999999999","66.66","NAN","NAN","NAN","NAN","NAN"],
    [1124289,"2026-05-07 22:20:00","53774","1.643","50.52","2.94","42.88","NAN","NAN","NAN","NAN","NAN"],
    [1124290,"2026-05-07 22:30:00","53775","1.123","45.78","2.385","45.26","NAN","NAN","NAN","NAN","NAN"],
    [1124291,"2026-05-07 22:40:00","53776","0.9940000000000001","49.73","2.352","50.85","NAN","NAN","NAN","NAN","NAN"],
    [1124292,"2026-05-07 22:50:00","53777","0.748","47.22","1.797","44.07","NAN","NAN","NAN","NAN","NAN"],
    [1124293,"2026-05-07 23:00:00","53778","0.733","53.97","1.633","56.16","NAN","NAN","NAN","NAN","NAN"],
    [1124294,"2026-05-07 23:10:00","53779","0.68","59.26","1.5030000000000001","58.96","NAN","NAN","NAN","NAN","NAN"],
    [1124295,"2026-05-07 23:20:00","53780","0.518","61.04","1.274","60.69","NAN","NAN","NAN","NAN","NAN"],
    [1124296,"2026-05-07 23:30:00","53781","0.38799999999999996","61.99","1.568","61.55","NAN","NAN","NAN","NAN","NAN"],
    [1124297,"2026-05-07 23:40:00","53782","0.20199999999999999","62.67","1.078","62.71","NAN","NAN","NAN","NAN","NAN"],
    [1124298,"2026-05-07 23:50:00","53783","0.073","50.78","0.7190000000000001","58.09","NAN","NAN","NAN","NAN","NAN"],
    [1124299,"2026-05-08 00:00:00","53784","0.024","41.53","0.359","41.53","NAN","NAN","NAN","NAN","NAN"],
    [1124300,"2026-05-08 00:10:00","53785","0.043","40.82","0.49","40.76","NAN","NAN","NAN","NAN","NAN"],
    [1124301,"2026-05-08 00:20:00","53786","0.092","26.2","0.457","40.48","NAN","NAN","NAN","NAN","NAN"],
    [1124302,"2026-05-08 00:30:00","53787","0.059000000000000004","4.73","0.588","4.476","NAN","NAN","NAN","NAN","NAN"],
    [1124303,"2026-05-08 00:40:00","53788","0.32899999999999996","1.661","0.6859999999999999","1.6440000000000001","NAN","NAN","NAN","NAN","NAN"],
    [1124304,"2026-05-08 00:50:00","53789","0.16899999999999998","0.243","0.6859999999999999","0.313","NAN","NAN","NAN","NAN","NAN"],
    [1124305,"2026-05-08 01:00:00","53790","0.0","0.0","0.0","0.0","NAN","NAN","NAN","NAN","NAN"],
    [1124306,"2026-05-08 01:10:00","53791","0.001","0.188","0.131","0.184","NAN","NAN","NAN","NAN","NAN"],
    [1124307,"2026-05-08 01:20:00","53792","0.013999999999999999","355.1","0.261","354.2","NAN","NAN","NAN","NAN","NAN"],
    [1124308,"2026-05-08 01:30:00","53793","0.001","354.5","0.098","354.5","NAN","NAN","NAN","NAN","NAN"],
    [1124309,"2026-05-08 01:40:00","53794","0.0","0.0","0.0","0.0","NAN","NAN","NAN","NAN","NAN"],
    [1124310,"2026-05-08 01:50:00","53795","0.035","352.2","0.6859999999999999","352.3","NAN","NAN","NAN","NAN","NAN"],
    [1124311,"2026-05-08 02:00:00","53796","0.034","348.6","0.49","349.4","NAN","NAN","NAN","NAN","NAN"],
    [1124312,"2026-05-08 02:10:00","53797","0.053","347.4","0.621","347.6","NAN","NAN","NAN","NAN","NAN"],
    [1124313,"2026-05-08 02:20:00","53798","0.073","347.0","0.588","347.1","NAN","NAN","NAN","NAN","NAN"],
    [1124314,"2026-05-08 02:30:00","53799","0.107","346.6","0.6859999999999999","346.8","NAN","NAN","NAN","NAN","NAN"],
    [1124315,"2026-05-08 02:40:00","53800","0.133","345.4","0.7509999999999999","345.8","NAN","NAN","NAN","NAN","NAN"],
    [1124316,"2026-05-08 02:50:00","53801","0.474","337.3","1.764","336.6","NAN","NAN","NAN","NAN","NAN"],
    [1124317,"2026-05-08 03:00:00","53802","0.547","330.8","1.339","328.8","NAN","NAN","NAN","NAN","NAN"],
    [1124318,"2026-05-08 03:10:00","53803","1.068","323.2","2.0909999999999997","315.4","NAN","NAN","NAN","NAN","NAN"],
    [1124319,"2026-05-08 03:20:00","53804","0.8370000000000001","312.7","2.0909999999999997","312.6","NAN","NAN","NAN","NAN","NAN"],
    [1124320,"2026-05-08 03:30:00","53805","0.26899999999999996","312.5","1.405","312.4","NAN","NAN","NAN","NAN","NAN"],
    [1124321,"2026-05-08 03:40:00","53806","0.7879999999999999","312.2","1.7309999999999999","312.0","NAN","NAN","NAN","NAN","NAN"],
    [1124322,"2026-05-08 03:50:00","53807","0.366","311.9","1.7309999999999999","312.0","NAN","NAN","NAN","NAN","NAN"],
    [1124323,"2026-05-08 04:00:00","53808","1.587","303.0","2.679","299.7","NAN","NAN","NAN","NAN","NAN"],
    [1124324,"2026-05-08 04:10:00","53809","1.391","298.0","2.842","297.6","NAN","NAN","NAN","NAN","NAN"],
    [1124325,"2026-05-08 04:20:00","53810","1.8619999999999999","295.4","3.005","296.4","NAN","NAN","NAN","NAN","NAN"],
    [1124326,"2026-05-08 04:30:00","53811","1.176","291.5","2.319","293.4","NAN","NAN","NAN","NAN","NAN"],
    [1124327,"2026-05-08 04:40:00","53812","1.104","287.2","2.0909999999999997","286.7","NAN","NAN","NAN","NAN","NAN"],
    [1124328,"2026-05-08 04:50:00","53813","1.186","285.0","2.613","284.9","NAN","NAN","NAN","NAN","NAN"],
    [1124329,"2026-05-08 05:00:00","53814","1.219","283.4","1.993","282.9","NAN","NAN","NAN","NAN","NAN"],
    [1124330,"2026-05-08 05:10:00","53815","1.579","281.1","2.417","281.1","NAN","NAN","NAN","NAN","NAN"],
    [1124331,"2026-05-08 05:20:00","53816","1.344","284.8","2.679","285.1","NAN","NAN","NAN","NAN","NAN"],
    [1124332,"2026-05-08 05:30:00","53817","0.6829999999999999","281.4","1.405","280.0","NAN","NAN","NAN","NAN","NAN"],
    [1124333,"2026-05-08 05:40:00","53818","0.426","287.9","1.47","284.8","NAN","NAN","NAN","NAN","NAN"],
    [1124334,"2026-05-08 05:50:00","53819","0.9129999999999999","297.2","1.7309999999999999","298.6","NAN","NAN","NAN","NAN","NAN"],
    [1124335,"2026-05-08 06:00:00","53820","0.536","292.8","1.797","291.1","NAN","NAN","NAN","NAN","NAN"],
    [1124336,"2026-05-08 06:10:00","53821","0.728","291.5","1.568","299.8","NAN","NAN","NAN","NAN","NAN"],
    [1124337,"2026-05-08 06:20:00","53822","0.943","296.6","1.764","296.6","NAN","NAN","NAN","NAN","NAN"],
    [1124338,"2026-05-08 06:30:00","53823","0.935","297.4","1.8619999999999999","299.9","NAN","NAN","NAN","NAN","NAN"],
    [1124339,"2026-05-08 06:40:00","53824","0.8759999999999999","292.8","1.568","289.4","NAN","NAN","NAN","NAN","NAN"],
    [1124340,"2026-05-08 06:50:00","53825","0.847","293.7","1.993","282.1","NAN","NAN","NAN","NAN","NAN"],
    [1124341,"2026-05-08 07:00:00","53826","1.129","279.3","1.8619999999999999","278.7","NAN","NAN","NAN","NAN","NAN"],
    [1124342,"2026-05-08 07:10:00","53827","0.723","280.3","1.666","278.2","NAN","NAN","NAN","NAN","NAN"],
    [1124343,"2026-05-08 07:20:00","53828","0.066","287.1","0.7509999999999999","286.5","NAN","NAN","NAN","NAN","NAN"],
    [1124344,"2026-05-08 07:30:00","53829","0.09","277.9","0.555","277.8","NAN","NAN","NAN","NAN","NAN"],
    [1124345,"2026-05-08 07:40:00","53830","0.853","318.3","2.189","306.5","NAN","NAN","NAN","NAN","NAN"],
    [1124346,"2026-05-08 07:50:00","53831","1.22","83.0","2.6460000000000004","86.0","NAN","NAN","NAN","NAN","NAN"],
    [1124347,"2026-05-08 08:00:00","53832","1.604","99.9","2.7769999999999997","108.1","NAN","NAN","NAN","NAN","NAN"],
    [1124348,"2026-05-08 08:10:00","53833","1.517","96.6","3.299","100.0","NAN","NAN","NAN","NAN","NAN"],
    [1124349,"2026-05-08 08:20:00","53834","1.955","96.8","2.9730000000000003","90.4","NAN","NAN","NAN","NAN","NAN"],
    [1124350,"2026-05-08 08:30:00","53835","1.685","86.2","2.907","82.2","NAN","NAN","NAN","NAN","NAN"],
    [1124351,"2026-05-08 08:40:00","53836","1.992","85.5","2.875","87.8","NAN","NAN","NAN","NAN","NAN"],
    [1124352,"2026-05-08 08:50:00","53837","1.4569999999999999","93.0","2.7439999999999998","84.0","NAN","NAN","NAN","NAN","NAN"],
    [1124353,"2026-05-08 09:00:00","53838","1.511","100.1","3.397","92.1","NAN","NAN","NAN","NAN","NAN"],
    [1124354,"2026-05-08 09:10:00","53839","1.891","117.9","3.267","132.9","NAN","NAN","NAN","NAN","NAN"],
    [1124355,"2026-05-08 09:20:00","53840","1.835","123.3","3.299","108.4","NAN","NAN","NAN","NAN","NAN"],
    [1124356,"2026-05-08 09:30:00","53841","1.463","111.2","3.071","114.8","NAN","NAN","NAN","NAN","NAN"],
    [1124357,"2026-05-08 09:40:00","53842","1.8780000000000001","113.6","3.887","92.1","NAN","NAN","NAN","NAN","NAN"],
    [1124358,"2026-05-08 09:50:00","53843","2.229","130.2","3.463","135.9","NAN","NAN","NAN","NAN","NAN"],
    [1124359,"2026-05-08 10:00:00","53844","1.6440000000000001","115.7","3.7889999999999997","98.0","NAN","NAN","NAN","NAN","NAN"],
    [1124360,"2026-05-08 10:10:00","53845","2.694","79.59","3.985","69.32","NAN","NAN","NAN","NAN","NAN"],
    [1124361,"2026-05-08 10:20:00","53846","2.36","75.14","4.247","72.2","NAN","NAN","NAN","NAN","NAN"],
    [1124362,"2026-05-08 10:30:00","53847","2.233","89.7","3.92","76.67","NAN","NAN","NAN","NAN","NAN"],
    [1124363,"2026-05-08 10:40:00","53848","2.682","91.1","4.083","94.2","NAN","NAN","NAN","NAN","NAN"],
    [1124364,"2026-05-08 10:50:00","53849","2.812","125.5","4.2139999999999995","128.1","NAN","NAN","NAN","NAN","NAN"],
    [1124365,"2026-05-08 11:00:00","53850","2.322","135.1","4.247","144.0","NAN","NAN","NAN","NAN","NAN"],
    [1124366,"2026-05-08 11:10:00","53851","2.27","125.6","3.528","146.5","NAN","NAN","NAN","NAN","NAN"],
    [1124367,"2026-05-08 11:20:00","53852","2.4130000000000003","143.7","4.051","155.5","NAN","NAN","NAN","NAN","NAN"],
    [1124368,"2026-05-08 11:30:00","53853","1.992","114.3","3.495","97.4","NAN","NAN","NAN","NAN","NAN"],
    [1124369,"2026-05-08 11:40:00","53854","2.117","121.6","4.149","130.1","NAN","NAN","NAN","NAN","NAN"],
    [1124370,"2026-05-08 11:50:00","53855","2.5469999999999997","131.6","4.2139999999999995","157.6","NAN","NAN","NAN","NAN","NAN"],
    [1124371,"2026-05-08 12:00:00","53856","2.155","122.6","4.181","142.3","NAN","NAN","NAN","NAN","NAN"],
    [1124372,"2026-05-08 12:10:00","53857","2.261","129.2","4.377","156.1","NAN","NAN","NAN","NAN","NAN"],
    [1124373,"2026-05-08 12:20:00","53858","1.7530000000000001","127.1","4.345","103.9","NAN","NAN","NAN","NAN","NAN"],
    [1124374,"2026-05-08 12:30:00","53859","2.873","109.2","4.704","90.0","NAN","NAN","NAN","NAN","NAN"],
    [1124375,"2026-05-08 12:40:00","53860","2.421","120.0","4.737","105.0","NAN","NAN","NAN","NAN","NAN"],
    [1124376,"2026-05-08 12:50:00","53861","3.1660000000000004","136.2","5.063","147.6","NAN","NAN","NAN","NAN","NAN"],
    [1124377,"2026-05-08 13:00:00","53862","2.519","158.4","4.704","159.0","NAN","NAN","NAN","NAN","NAN"],
    [1124378,"2026-05-08 13:10:00","53863","1.335","146.0","3.463","159.1","NAN","NAN","NAN","NAN","NAN"],
    [1124379,"2026-05-08 13:20:00","53864","1.436","111.5","3.071","98.8","NAN","NAN","NAN","NAN","NAN"],
    [1124380,"2026-05-08 13:30:00","53865","2.181","89.9","4.149","92.7","NAN","NAN","NAN","NAN","NAN"],
    [1124381,"2026-05-08 13:40:00","53866","2.7710000000000004","118.8","4.769","125.3","NAN","NAN","NAN","NAN","NAN"],
    [1124382,"2026-05-08 13:50:00","53867","2.576","110.7","4.41","127.4","NAN","NAN","NAN","NAN","NAN"],
    [1124383,"2026-05-08 14:00:00","53868","3.055","115.8","4.867","123.7","NAN","NAN","NAN","NAN","NAN"],
    [1124384,"2026-05-08 14:10:00","53869","3.267","118.7","4.9","109.0","NAN","NAN","NAN","NAN","NAN"],
    [1124385,"2026-05-08 14:20:00","53870","3.194","109.5","5.357","113.2","NAN","NAN","NAN","NAN","NAN"],
    [1124386,"2026-05-08 14:30:00","53871","3.14","121.9","5.227","136.3","NAN","NAN","NAN","NAN","NAN"],
    [1124387,"2026-05-08 14:40:00","53872","3.285","117.0","4.998","117.4","NAN","NAN","NAN","NAN","NAN"],
    [1124388,"2026-05-08 14:50:00","53873","2.736","111.0","4.149","125.8","NAN","NAN","NAN","NAN","NAN"],
    [1124389,"2026-05-08 15:00:00","53874","2.699","122.4","4.181","109.0","NAN","NAN","NAN","NAN","NAN"],
    [1124390,"2026-05-08 15:10:00","53875","3.0269999999999997","128.4","4.933","133.0","NAN","NAN","NAN","NAN","NAN"],
    [1124391,"2026-05-08 15:20:00","53876","3.003","130.3","4.933","123.9","NAN","NAN","NAN","NAN","NAN"],
    [1124392,"2026-05-08 15:30:00","53877","3.237","135.1","5.1610000000000005","147.2","NAN","NAN","NAN","NAN","NAN"],
    [1124393,"2026-05-08 15:40:00","53878","3.125","133.8","4.965","136.8","NAN","NAN","NAN","NAN","NAN"],
    [1124394,"2026-05-08 15:50:00","53879","3.27","130.4","5.292000000000001","143.8","NAN","NAN","NAN","NAN","NAN"],
    [1124395,"2026-05-08 16:00:00","53880","3.67","136.0","5.455","136.4","NAN","NAN","NAN","NAN","NAN"],
    [1124396,"2026-05-08 16:10:00","53881","3.259","124.3","5.325","142.0","NAN","NAN","NAN","NAN","NAN"],
    [1124397,"2026-05-08 16:20:00","53882","3.582","133.1","5.978","142.2","NAN","NAN","NAN","NAN","NAN"],
    [1124398,"2026-05-08 16:30:00","53883","3.2230000000000003","137.3","4.835","139.9","NAN","NAN","NAN","NAN","NAN"],
    [1124399,"2026-05-08 16:40:00","53884","3.3160000000000003","136.6","4.704","134.2","NAN","NAN","NAN","NAN","NAN"],
    [1124400,"2026-05-08 16:50:00","53885","2.8539999999999996","126.1","4.149","112.7","NAN","NAN","NAN","NAN","NAN"],
    [1124401,"2026-05-08 17:00:00","53886","2.733","145.2","4.41","146.1","NAN","NAN","NAN","NAN","NAN"],
    [1124402,"2026-05-08 17:10:00","53887","2.476","127.8","3.659","136.2","NAN","NAN","NAN","NAN","NAN"],
    [1124403,"2026-05-08 17:20:00","53888","1.892","133.6","3.299","139.2","NAN","NAN","NAN","NAN","NAN"],
    [1124404,"2026-05-08 17:30:00","53889","2.347","126.4","3.822","141.5","NAN","NAN","NAN","NAN","NAN"],
    [1124405,"2026-05-08 17:40:00","53890","1.6669999999999998","107.7","3.103","127.6","NAN","NAN","NAN","NAN","NAN"],
    [1124406,"2026-05-08 17:50:00","53891","1.4980000000000002","127.8","2.5810000000000004","128.3","NAN","NAN","NAN","NAN","NAN"],
    [1124407,"2026-05-08 18:00:00","53892","1.7819999999999998","116.3","3.1689999999999996","104.4","NAN","NAN","NAN","NAN","NAN"],
    [1124408,"2026-05-08 18:10:00","53893","1.087","127.2","2.0909999999999997","130.1","NAN","NAN","NAN","NAN","NAN"],
    [1124409,"2026-05-08 18:20:00","53894","1.018","120.0","1.829","124.5","NAN","NAN","NAN","NAN","NAN"],
    [1124410,"2026-05-08 18:30:00","53895","0.97","118.4","1.5030000000000001","118.3","NAN","NAN","NAN","NAN","NAN"],
    [1124411,"2026-05-08 18:40:00","53896","0.5579999999999999","117.7","1.3719999999999999","117.9","NAN","NAN","NAN","NAN","NAN"],
    [1124412,"2026-05-08 18:50:00","53897","1.155","117.6","1.8619999999999999","118.4","NAN","NAN","NAN","NAN","NAN"],
    [1124413,"2026-05-08 19:00:00","53898","1.693","123.0","2.6460000000000004","130.2","NAN","NAN","NAN","NAN","NAN"],
    [1124414,"2026-05-08 19:10:00","53899","1.7719999999999998","118.4","2.45","116.5","NAN","NAN","NAN","NAN","NAN"],
    [1124415,"2026-05-08 19:20:00","53900","1.749","114.1","2.679","114.6","NAN","NAN","NAN","NAN","NAN"],
    [1124416,"2026-05-08 19:30:00","53901","1.608","118.4","2.9730000000000003","118.0","NAN","NAN","NAN","NAN","NAN"],
    [1124417,"2026-05-08 19:40:00","53902","1.916","107.3","3.267","101.8","NAN","NAN","NAN","NAN","NAN"],
    [1124418,"2026-05-08 19:50:00","53903","2.267","96.9","3.7889999999999997","84.7","NAN","NAN","NAN","NAN","NAN"],
    [1124419,"2026-05-08 20:00:00","53904","2.222","93.4","3.6260000000000003","90.6","NAN","NAN","NAN","NAN","NAN"],
    [1124420,"2026-05-08 20:10:00","53905","2.037","93.9","3.43","97.3","NAN","NAN","NAN","NAN","NAN"],
    [1124421,"2026-05-08 20:20:00","53906","1.591","90.7","2.842","86.8","NAN","NAN","NAN","NAN","NAN"],
    [1124422,"2026-05-08 20:30:00","53907","1.7590000000000001","108.4","3.005","121.4","NAN","NAN","NAN","NAN","NAN"],
    [1124423,"2026-05-08 20:40:00","53908","1.754","110.3","2.9730000000000003","123.9","NAN","NAN","NAN","NAN","NAN"],
    [1124424,"2026-05-08 20:50:00","53909","1.385","105.1","2.7110000000000003","102.1","NAN","NAN","NAN","NAN","NAN"],
    [1124425,"2026-05-08 21:00:00","53910","0.636","100.7","2.123","100.5","NAN","NAN","NAN","NAN","NAN"],
    [1124426,"2026-05-08 21:10:00","53911","1.473","100.6","2.7110000000000003","99.8","NAN","NAN","NAN","NAN","NAN"],
    [1124427,"2026-05-08 21:20:00","53912","1.4809999999999999","104.8","2.7769999999999997","97.9","NAN","NAN","NAN","NAN","NAN"],
    [1124428,"2026-05-08 21:30:00","53913","1.8","97.5","3.92","95.0","NAN","NAN","NAN","NAN","NAN"],
    [1124429,"2026-05-08 21:40:00","53914","2.296","89.8","3.659","92.2","NAN","NAN","NAN","NAN","NAN"],
    [1124430,"2026-05-08 21:50:00","53915","2.127","92.0","3.855","97.0","NAN","NAN","NAN","NAN","NAN"],
    [1124431,"2026-05-08 22:00:00","53916","2.137","94.5","3.528","95.3","NAN","NAN","NAN","NAN","NAN"],
    [1124432,"2026-05-08 22:10:00","53917","2.0","96.3","3.7889999999999997","85.0","NAN","NAN","NAN","NAN","NAN"],
    [1124433,"2026-05-08 22:20:00","53918","1.881","94.8","3.332","86.4","NAN","NAN","NAN","NAN","NAN"],
    [1124434,"2026-05-08 22:30:00","53919","1.911","95.9","3.528","103.0","NAN","NAN","NAN","NAN","NAN"],
    [1124435,"2026-05-08 22:40:00","53920","2.102","111.1","3.593","113.9","NAN","NAN","NAN","NAN","NAN"],
    [1124436,"2026-05-08 22:50:00","53921","2.126","105.5","3.7569999999999997","108.7","NAN","NAN","NAN","NAN","NAN"],
    [1124437,"2026-05-08 23:00:00","53922","1.844","108.6","3.332","112.5","NAN","NAN","NAN","NAN","NAN"],
    [1124438,"2026-05-08 23:10:00","53923","1.6869999999999998","103.5","3.332","96.7","NAN","NAN","NAN","NAN","NAN"],
    [1124439,"2026-05-08 23:20:00","53924","2.1630000000000003","93.2","3.6910000000000003","82.7","NAN","NAN","NAN","NAN","NAN"],
    [1124440,"2026-05-08 23:30:00","53925","2.256","87.6","3.593","77.8","NAN","NAN","NAN","NAN","NAN"],
    [1124441,"2026-05-08 23:40:00","53926","2.137","87.9","3.593","84.2","NAN","NAN","NAN","NAN","NAN"],
    [1124442,"2026-05-08 23:50:00","53927","1.665","89.4","3.267","82.7","NAN","NAN","NAN","NAN","NAN"],
    [1124443,"2026-05-09 00:00:00","53928","2.1109999999999998","88.7","3.365","85.8","NAN","NAN","NAN","NAN","NAN"],
    [1124444,"2026-05-09 00:10:00","53929","2.1390000000000002","85.2","3.365","94.0","NAN","NAN","NAN","NAN","NAN"],
    [1124445,"2026-05-09 00:20:00","53930","2.597","90.2","4.083","93.2","NAN","NAN","NAN","NAN","NAN"],
    [1124446,"2026-05-09 00:30:00","53931","2.376","90.9","3.528","89.5","NAN","NAN","NAN","NAN","NAN"],
    [1124447,"2026-05-09 00:40:00","53932","1.982","89.9","3.136","85.0","NAN","NAN","NAN","NAN","NAN"],
    [1124448,"2026-05-09 00:50:00","53933","1.358","101.2","2.483","89.5","NAN","NAN","NAN","NAN","NAN"],
    [1124449,"2026-05-09 01:00:00","53934","1.9340000000000002","105.7","3.299","106.6","NAN","NAN","NAN","NAN","NAN"],
    [1124450,"2026-05-09 01:10:00","53935","2.075","116.3","3.234","117.5","NAN","NAN","NAN","NAN","NAN"],
    [1124451,"2026-05-09 01:20:00","53936","2.032","122.6","3.201","127.7","NAN","NAN","NAN","NAN","NAN"],
    [1124452,"2026-05-09 01:30:00","53937","1.9409999999999998","116.6","3.397","93.1","NAN","NAN","NAN","NAN","NAN"],
    [1124453,"2026-05-09 01:40:00","53938","2.1959999999999997","101.9","3.495","96.8","NAN","NAN","NAN","NAN","NAN"],
    [1124454,"2026-05-09 01:50:00","53939","1.899","89.7","3.136","92.4","NAN","NAN","NAN","NAN","NAN"],
    [1124455,"2026-05-09 02:00:00","53940","1.9180000000000001","86.4","2.7769999999999997","83.7","NAN","NAN","NAN","NAN","NAN"],
    [1124456,"2026-05-09 02:10:00","53941","1.942","91.9","3.593","97.8","NAN","NAN","NAN","NAN","NAN"],
    [1124457,"2026-05-09 02:20:00","53942","2.23","95.3","3.6910000000000003","99.8","NAN","NAN","NAN","NAN","NAN"],
    [1124458,"2026-05-09 02:30:00","53943","2.03","83.9","3.6910000000000003","88.4","NAN","NAN","NAN","NAN","NAN"],
    [1124459,"2026-05-09 02:40:00","53944","1.801","52.75","3.201","51.16","NAN","NAN","NAN","NAN","NAN"],
    [1124460,"2026-05-09 02:50:00","53945","1.62","48.84","2.842","50.58","NAN","NAN","NAN","NAN","NAN"],
    [1124461,"2026-05-09 03:00:00","53946","1.345","44.76","2.352","44.81","NAN","NAN","NAN","NAN","NAN"],
    [1124462,"2026-05-09 03:10:00","53947","1.369","58.88","2.45","61.78","NAN","NAN","NAN","NAN","NAN"],
    [1124463,"2026-05-09 03:20:00","53948","1.92","69.69","2.7110000000000003","71.24","NAN","NAN","NAN","NAN","NAN"],
    [1124464,"2026-05-09 03:30:00","53949","1.349","79.57","2.94","76.35","NAN","NAN","NAN","NAN","NAN"],
    [1124465,"2026-05-09 03:40:00","53950","1.511","85.2","2.907","76.22","NAN","NAN","NAN","NAN","NAN"],
    [1124466,"2026-05-09 03:50:00","53951","1.6119999999999999","82.9","2.6460000000000004","89.4","NAN","NAN","NAN","NAN","NAN"],
    [1124467,"2026-05-09 04:00:00","53952","0.905","77.64","2.842","82.8","NAN","NAN","NAN","NAN","NAN"],
    [1124468,"2026-05-09 04:10:00","53953","1.666","90.5","2.8089999999999997","88.4","NAN","NAN","NAN","NAN","NAN"],
    [1124469,"2026-05-09 04:20:00","53954","1.844","92.5","3.7889999999999997","82.6","NAN","NAN","NAN","NAN","NAN"],
    [1124470,"2026-05-09 04:30:00","53955","2.066","100.7","3.495","105.1","NAN","NAN","NAN","NAN","NAN"],
    [1124471,"2026-05-09 04:40:00","53956","2.728","96.2","4.051","88.2","NAN","NAN","NAN","NAN","NAN"],
    [1124472,"2026-05-09 04:50:00","53957","2.029","98.4","4.018","87.5","NAN","NAN","NAN","NAN","NAN"],
    [1124473,"2026-05-09 05:00:00","53958","2.662","89.1","4.051","84.0","NAN","NAN","NAN","NAN","NAN"],
    [1124474,"2026-05-09 05:10:00","53959","1.5959999999999999","84.3","3.463","84.7","NAN","NAN","NAN","NAN","NAN"],
    [1124475,"2026-05-09 05:20:00","53960","2.463","81.5","4.018","90.7","NAN","NAN","NAN","NAN","NAN"],
    [1124476,"2026-05-09 05:30:00","53961","3.1069999999999998","80.4","4.9","72.36","NAN","NAN","NAN","NAN","NAN"],
    [1124477,"2026-05-09 05:40:00","53962","2.61","82.3","4.279","81.9","NAN","NAN","NAN","NAN","NAN"],
    [1124478,"2026-05-09 05:50:00","53963","2.044","80.5","5.553","97.1","NAN","NAN","NAN","NAN","NAN"],
    [1124479,"2026-05-09 06:00:00","53964","2.653","80.3","5.292000000000001","99.4","NAN","NAN","NAN","NAN","NAN"],
    [1124480,"2026-05-09 06:10:00","53965","1.963","87.2","3.855","86.0","NAN","NAN","NAN","NAN","NAN"],
    [1124481,"2026-05-09 06:20:00","53966","1.464","77.16","3.43","89.0","NAN","NAN","NAN","NAN","NAN"],
    [1124482,"2026-05-09 06:30:00","53967","3.014","94.9","4.802","103.1","NAN","NAN","NAN","NAN","NAN"],
    [1124483,"2026-05-09 06:40:00","53968","2.5069999999999997","88.0","4.835","98.6","NAN","NAN","NAN","NAN","NAN"],
    [1124484,"2026-05-09 06:50:00","53969","2.822","91.7","5.063","90.1","NAN","NAN","NAN","NAN","NAN"],
    [1124485,"2026-05-09 07:00:00","53970","3.179","83.6","5.096","67.98","NAN","NAN","NAN","NAN","NAN"],
    [1124486,"2026-05-09 07:10:00","53971","3.182","89.2","5.292000000000001","86.6","NAN","NAN","NAN","NAN","NAN"],
    [1124487,"2026-05-09 07:20:00","53972","3.5189999999999997","80.5","5.912999999999999","97.0","NAN","NAN","NAN","NAN","NAN"],
    [1124488,"2026-05-09 07:30:00","53973","3.595","86.7","6.141","71.35","NAN","NAN","NAN","NAN","NAN"],
    [1124489,"2026-05-09 07:40:00","53974","3.7319999999999998","86.0","5.815","98.3","NAN","NAN","NAN","NAN","NAN"],
    [1124490,"2026-05-09 07:50:00","53975","3.611","84.7","6.599","96.6","NAN","NAN","NAN","NAN","NAN"],
    [1124491,"2026-05-09 08:00:00","53976","4.132","95.0","6.729","98.2","NAN","NAN","NAN","NAN","NAN"],
    [1124492,"2026-05-09 08:10:00","53977","4.579","88.2","7.218999999999999","99.8","NAN","NAN","NAN","NAN","NAN"],
    [1124493,"2026-05-09 08:20:00","53978","4.195","91.5","8.0","89.6","NAN","NAN","NAN","NAN","NAN"],
    [1124494,"2026-05-09 08:30:00","53979","4.074","83.0","6.337000000000001","97.8","NAN","NAN","NAN","NAN","NAN"],
    [1124495,"2026-05-09 08:40:00","53980","3.9539999999999997","79.45","7.382999999999999","82.0","NAN","NAN","NAN","NAN","NAN"],
    [1124496,"2026-05-09 08:50:00","53981","3.384","75.9","6.305","79.04","NAN","NAN","NAN","NAN","NAN"],
    [1124497,"2026-05-09 09:00:00","53982","3.2289999999999996","80.4","6.925","79.99","NAN","NAN","NAN","NAN","NAN"],
    [1124498,"2026-05-09 09:10:00","53983","3.591","81.9","6.337000000000001","80.6","NAN","NAN","NAN","NAN","NAN"],
    [1124499,"2026-05-09 09:20:00","53984","3.438","81.2","6.795","73.86","NAN","NAN","NAN","NAN","NAN"],
    [1124500,"2026-05-09 09:30:00","53985","3.912","83.1","7.218999999999999","95.9","NAN","NAN","NAN","NAN","NAN"],
    [1124501,"2026-05-09 09:40:00","53986","3.733","86.4","7.285","74.31","NAN","NAN","NAN","NAN","NAN"],
    [1124502,"2026-05-09 09:50:00","53987","3.89","82.8","7.513","68.31","NAN","NAN","NAN","NAN","NAN"],
    [1124503,"2026-05-09 10:00:00","53988","4.72","80.2","7.252000000000001","82.7","NAN","NAN","NAN","NAN","NAN"],
    [1124504,"2026-05-09 10:10:00","53989","4.367","79.79","6.631","72.41","NAN","NAN","NAN","NAN","NAN"],
    [1124505,"2026-05-09 10:20:00","53990","3.929","86.8","6.501","74.81","NAN","NAN","NAN","NAN","NAN"],
    [1124506,"2026-05-09 10:30:00","53991","4.031000000000001","86.7","7.415","80.7","NAN","NAN","NAN","NAN","NAN"],
    [1124507,"2026-05-09 10:40:00","53992","4.319","84.3","6.925","89.5","NAN","NAN","NAN","NAN","NAN"],
    [1124508,"2026-05-09 10:50:00","53993","4.734","75.74","7.382999999999999","75.45","NAN","NAN","NAN","NAN","NAN"],
    [1124509,"2026-05-09 11:00:00","53994","4.41","79.08","6.664","80.2","NAN","NAN","NAN","NAN","NAN"],
    [1124510,"2026-05-09 11:10:00","53995","4.0089999999999995","82.3","6.631","86.9","NAN","NAN","NAN","NAN","NAN"],
    [1124511,"2026-05-09 11:20:00","53996","4.495","82.5","8.26","72.04","NAN","NAN","NAN","NAN","NAN"],
    [1124512,"2026-05-09 11:30:00","53997","3.773","78.19","8.2","75.9","NAN","NAN","NAN","NAN","NAN"],
    [1124513,"2026-05-09 11:40:00","53998","1.743","65.0","4.541","66.75","NAN","NAN","NAN","NAN","NAN"],
    [1124514,"2026-05-09 11:50:00","53999","3.133","82.3","6.599","95.5","NAN","NAN","NAN","NAN","NAN"],
    [1124515,"2026-05-09 12:00:00","54000","3.267","78.55","7.056","93.5","NAN","NAN","NAN","NAN","NAN"],
    [1124516,"2026-05-09 12:10:00","54001","5.245","82.7","8.36","96.8","NAN","NAN","NAN","NAN","NAN"],
    [1124517,"2026-05-09 12:20:00","54002","4.511","83.3","8.17","81.0","NAN","NAN","NAN","NAN","NAN"],
    [1124518,"2026-05-09 12:30:00","54003","5.407","85.3","10.13","78.09","NAN","NAN","NAN","NAN","NAN"],
    [1124519,"2026-05-09 12:40:00","54004","3.9589999999999996","75.72","9.47","64.71","NAN","NAN","NAN","NAN","NAN"],
    [1124520,"2026-05-09 12:50:00","54005","3.2310000000000003","70.41","8.92","52.26","NAN","NAN","NAN","NAN","NAN"],
    [1124521,"2026-05-09 13:00:00","54006","2.525","65.61","6.403","57.58","NAN","NAN","NAN","NAN","NAN"],
    [1124522,"2026-05-09 13:10:00","54007","2.248","75.8","4.867","63.97","NAN","NAN","NAN","NAN","NAN"],
    [1124523,"2026-05-09 13:20:00","54008","2.168","82.9","5.455","102.4","NAN","NAN","NAN","NAN","NAN"],
    [1124524,"2026-05-09 13:30:00","54009","2.883","82.0","5.292000000000001","68.42","NAN","NAN","NAN","NAN","NAN"],
    [1124525,"2026-05-09 13:40:00","54010","2.276","92.8","3.9530000000000003","104.0","NAN","NAN","NAN","NAN","NAN"],
    [1124526,"2026-05-09 13:50:00","54011","3.179","85.7","6.827000000000001","93.5","NAN","NAN","NAN","NAN","NAN"],
    [1124527,"2026-05-09 14:00:00","54012","4.365","93.4","7.317","95.3","NAN","NAN","NAN","NAN","NAN"],
    [1124528,"2026-05-09 14:10:00","54013","5.232","88.8","11.2","89.4","NAN","NAN","NAN","NAN","NAN"],
    [1124529,"2026-05-09 14:20:00","54014","7.665","78.97","12.77","77.38","NAN","NAN","NAN","NAN","NAN"],
    [1124530,"2026-05-09 14:30:00","54015","8.02","79.67","12.77","84.6","NAN","NAN","NAN","NAN","NAN"],
    [1124531,"2026-05-09 14:40:00","54016","4.871","80.1","10.13","78.55","NAN","NAN","NAN","NAN","NAN"],
    [1124532,"2026-05-09 14:50:00","54017","4.513999999999999","55.83","10.71","61.1","NAN","NAN","NAN","NAN","NAN"],
    [1124533,"2026-05-09 15:00:00","54018","3.0589999999999997","74.03","6.795","44.72","NAN","NAN","NAN","NAN","NAN"],
    [1124534,"2026-05-09 15:10:00","54019","2.847","100.3","5.4879999999999995","97.2","NAN","NAN","NAN","NAN","NAN"],
    [1124535,"2026-05-09 15:20:00","54020","2.435","107.6","5.39","103.8","NAN","NAN","NAN","NAN","NAN"],
    [1124536,"2026-05-09 15:30:00","54021","2.4330000000000003","108.6","4.083","93.3","NAN","NAN","NAN","NAN","NAN"],
    [1124537,"2026-05-09 15:40:00","54022","2.3890000000000002","87.6","5.227","82.8","NAN","NAN","NAN","NAN","NAN"],
    [1124538,"2026-05-09 15:50:00","54023","2.6060000000000003","89.0","4.4430000000000005","93.2","NAN","NAN","NAN","NAN","NAN"],
    [1124539,"2026-05-09 16:00:00","54024","1.9909999999999999","84.4","3.6260000000000003","88.7","NAN","NAN","NAN","NAN","NAN"],
    [1124540,"2026-05-09 16:10:00","54025","3.108","80.5","4.769","82.7","NAN","NAN","NAN","NAN","NAN"],
    [1124541,"2026-05-09 16:20:00","54026","2.9189999999999996","77.59","5.619","69.19","NAN","NAN","NAN","NAN","NAN"],
    [1124542,"2026-05-09 16:30:00","54027","2.7560000000000002","48.15","5.096","38.42","NAN","NAN","NAN","NAN","NAN"],
    [1124543,"2026-05-09 16:40:00","54028","3.6630000000000003","35.67","5.749","54.52","NAN","NAN","NAN","NAN","NAN"],
    [1124544,"2026-05-09 16:50:00","54029","4.956","45.2","8.46","43.65","NAN","NAN","NAN","NAN","NAN"],
    [1124545,"2026-05-09 17:00:00","54030","4.085","40.71","7.056","41.98","NAN","NAN","NAN","NAN","NAN"],
    [1124546,"2026-05-09 17:10:00","54031","3.937","47.46","7.709","37.03","NAN","NAN","NAN","NAN","NAN"],
    [1124547,"2026-05-09 17:20:00","54032","3.167","60.89","5.422999999999999","51.74","NAN","NAN","NAN","NAN","NAN"],
    [1124548,"2026-05-09 17:30:00","54033","2.503","50.04","5.684","40.68","NAN","NAN","NAN","NAN","NAN"],
    [1124549,"2026-05-09 17:40:00","54034","2.717","81.2","4.41","87.8","NAN","NAN","NAN","NAN","NAN"],
    [1124550,"2026-05-09 17:50:00","54035","2.2840000000000003","74.35","3.6910000000000003","92.7","NAN","NAN","NAN","NAN","NAN"],
    [1124551,"2026-05-09 18:00:00","54036","2.099","52.4","4.083","62.52","NAN","NAN","NAN","NAN","NAN"],
    [1124552,"2026-05-09 18:10:00","54037","2.146","61.81","4.312","68.61","NAN","NAN","NAN","NAN","NAN"],
    [1124553,"2026-05-09 18:20:00","54038","1.274","53.07","2.352","45.77","NAN","NAN","NAN","NAN","NAN"],
    [1124554,"2026-05-09 18:30:00","54039","0.534","47.67","1.47","50.58","NAN","NAN","NAN","NAN","NAN"],
    [1124555,"2026-05-09 18:40:00","54040","0.368","50.4","1.307","49.72","NAN","NAN","NAN","NAN","NAN"],
    [1124556,"2026-05-09 18:50:00","54041","0.0","0.0","0.0","0.0","NAN","NAN","NAN","NAN","NAN"],
    [1124557,"2026-05-09 19:00:00","54042","0.001","45.58","0.163","45.58","NAN","NAN","NAN","NAN","NAN"],
    [1124558,"2026-05-09 19:10:00","54043","0.0","0.0","0.0","0.0","NAN","NAN","NAN","NAN","NAN"],
    [1124559,"2026-05-09 19:20:00","54044","0.0","0.0","0.0","0.0","NAN","NAN","NAN","NAN","NAN"],
    [1124560,"2026-05-09 19:30:00","54045","0.002","45.38","0.163","45.38","NAN","NAN","NAN","NAN","NAN"],
    [1124561,"2026-05-09 19:40:00","54046","0.024","44.62","0.359","44.42","NAN","NAN","NAN","NAN","NAN"],
    [1124562,"2026-05-09 19:50:00","54047","0.11699999999999999","43.93","0.621","43.71","NAN","NAN","NAN","NAN","NAN"],
    [1124563,"2026-05-09 20:00:00","54048","0.07","43.11","0.523","43.33","NAN","NAN","NAN","NAN","NAN"],
    [1124564,"2026-05-09 20:10:00","54049","0.036000000000000004","42.76","0.49","42.69","NAN","NAN","NAN","NAN","NAN"],
    [1124565,"2026-05-09 20:20:00","54050","0.44799999999999995","41.76","1.143","39.96","NAN","NAN","NAN","NAN","NAN"],
    [1124566,"2026-05-09 20:30:00","54051","0.391","34.94","0.9470000000000001","33.64","NAN","NAN","NAN","NAN","NAN"],
    [1124567,"2026-05-09 20:40:00","54052","0.215","341.8","1.078","340.2","NAN","NAN","NAN","NAN","NAN"],
    [1124568,"2026-05-09 20:50:00","54053","0.33299999999999996","334.3","1.209","328.6","NAN","NAN","NAN","NAN","NAN"],
    [1124569,"2026-05-09 21:00:00","54054","0.603","324.5","1.764","320.7","NAN","NAN","NAN","NAN","NAN"],
    [1124570,"2026-05-09 21:10:00","54055","0.39799999999999996","319.0","1.111","317.6","NAN","NAN","NAN","NAN","NAN"],
    [1124571,"2026-05-09 21:20:00","54056","0.341","317.1","1.078","317.2","NAN","NAN","NAN","NAN","NAN"],
    [1124572,"2026-05-09 21:30:00","54057","0.217","316.8","0.7509999999999999","316.8","NAN","NAN","NAN","NAN","NAN"],
    [1124573,"2026-05-09 21:40:00","54058","0.261","316.4","1.274","316.1","NAN","NAN","NAN","NAN","NAN"],
    [1124574,"2026-05-09 21:50:00","54059","0.77","314.8","1.2409999999999999","315.1","NAN","NAN","NAN","NAN","NAN"]
]}
